createdAt,value
2019-05-20T00:00:11.568Z,97.40
2019-05-20T00:02:40.157Z,97.20
2019-05-20T00:05:09.184Z,97.10
2019-05-20T00:07:37.766Z,97.10
2019-05-20T00:10:07.840Z,97.10
2019-05-20T00:12:36.529Z,97.10
2019-05-20T00:15:06.853Z,97.00
2019-05-20T00:17:35.439Z,96.80
2019-05-20T00:20:06.994Z,97.00
2019-05-20T00:22:35.721Z,97.30
2019-05-20T00:25:07.762Z,97.20
2019-05-20T00:27:36.314Z,97.10
2019-05-20T00:30:07.860Z,97.00
2019-05-20T00:32:41.328Z,97.00
2019-05-20T00:35:08.523Z,97.00
2019-05-20T00:37:37.154Z,97.00
2019-05-20T00:40:07.716Z,96.90
2019-05-20T00:42:36.271Z,96.90
2019-05-20T00:45:05.699Z,96.90
2019-05-20T00:47:34.388Z,96.80
2019-05-20T00:50:03.537Z,97.00
2019-05-20T00:52:32.136Z,97.20
2019-05-20T00:55:00.756Z,97.10
2019-05-20T00:57:29.401Z,97.00
2019-05-20T00:59:58.045Z,96.90
2019-05-20T01:02:26.638Z,96.90
2019-05-20T01:04:55.360Z,97.00
2019-05-20T01:07:23.948Z,97.20
2019-05-20T01:09:52.489Z,97.00
2019-05-20T01:12:21.122Z,96.90
2019-05-20T01:14:49.712Z,97.00
2019-05-20T01:17:18.472Z,96.80
2019-05-20T01:19:47.309Z,96.70
2019-05-20T01:22:20.737Z,96.60
2019-05-20T01:24:49.265Z,96.60
2019-05-20T01:27:17.930Z,96.90
2019-05-20T01:29:46.721Z,97.00
2019-05-20T01:32:15.288Z,97.00
2019-05-20T01:34:43.863Z,97.00
2019-05-20T01:37:12.420Z,97.00
2019-05-20T01:39:41.005Z,96.90
2019-05-20T01:42:09.761Z,96.90
2019-05-20T01:44:38.344Z,96.90
2019-05-20T01:47:07.003Z,96.90
2019-05-20T01:49:37.128Z,97.10
2019-05-20T01:52:05.702Z,97.10
2019-05-20T01:54:34.307Z,97.00
2019-05-20T01:57:03.051Z,97.00
2019-05-20T01:59:32.701Z,96.90
2019-05-20T02:02:01.341Z,97.00
2019-05-20T02:04:29.881Z,97.20
2019-05-20T02:06:58.528Z,97.40
2019-05-20T02:09:27.153Z,97.20
2019-05-20T02:11:55.933Z,97.30
2019-05-20T02:14:38.170Z,97.20
2019-05-20T02:17:06.797Z,97.20
2019-05-20T02:19:35.581Z,97.10
2019-05-20T02:22:04.439Z,97.20
2019-05-20T02:24:33.293Z,97.10
2019-05-20T02:27:21.243Z,97.00
2019-05-20T02:29:50.024Z,96.70
2019-05-20T02:32:18.880Z,96.60
2019-05-20T02:34:47.533Z,96.60
2019-05-20T02:37:16.120Z,96.50
2019-05-20T02:39:44.748Z,96.50
2019-05-20T02:42:13.456Z,96.60
2019-05-20T02:44:42.141Z,96.70
2019-05-20T02:47:10.754Z,96.80
2019-05-20T02:49:39.339Z,96.70
2019-05-20T02:52:08.025Z,97.00
2019-05-20T02:54:37.892Z,96.80
2019-05-20T02:57:06.525Z,96.80
2019-05-20T02:59:35.084Z,97.10
2019-05-20T03:02:03.732Z,97.00
2019-05-20T03:04:32.385Z,96.90
2019-05-20T03:07:01.089Z,96.80
2019-05-20T03:09:29.756Z,96.70
2019-05-20T03:11:58.376Z,96.90
2019-05-20T03:14:26.977Z,97.00
2019-05-20T03:17:15.016Z,97.10
2019-05-20T03:19:43.651Z,96.90
2019-05-20T03:22:12.263Z,96.90
2019-05-20T03:24:40.995Z,97.00
2019-05-20T03:27:09.647Z,97.00
2019-05-20T03:29:38.431Z,96.60
2019-05-20T03:32:07.280Z,96.50
2019-05-20T03:34:46.731Z,96.30
2019-05-20T03:37:06.395Z,96.50
2019-05-20T03:39:34.978Z,96.40
2019-05-20T03:42:03.603Z,96.20
2019-05-20T03:44:32.235Z,96.10
2019-05-20T03:47:00.857Z,96.10
2019-05-20T03:49:29.493Z,96.20
2019-05-20T03:51:58.226Z,96.30
2019-05-20T03:54:26.891Z,96.30
2019-05-20T03:56:55.557Z,96.30
2019-05-20T03:59:24.191Z,96.40
2019-05-20T04:01:52.821Z,96.40
2019-05-20T04:04:24.840Z,96.50
2019-05-20T04:06:51.572Z,96.70
2019-05-20T04:09:20.186Z,96.80
2019-05-20T04:11:48.947Z,96.70
2019-05-20T04:14:17.655Z,96.60
2019-05-20T04:16:46.286Z,96.50
2019-05-20T04:19:14.915Z,96.40
2019-05-20T04:21:43.574Z,96.40
2019-05-20T04:24:12.440Z,96.30
2019-05-20T04:26:41.057Z,96.40
2019-05-20T04:29:09.652Z,96.40
2019-05-20T04:31:38.575Z,96.30
2019-05-20T04:34:07.421Z,96.30
2019-05-20T04:36:36.126Z,96.10
2019-05-20T04:39:06.733Z,96.20
2019-05-20T04:41:36.061Z,96.20
2019-05-20T04:44:24.202Z,96.10
2019-05-20T04:46:52.779Z,96.00
2019-05-20T04:49:21.391Z,96.10
2019-05-20T04:51:51.494Z,96.20
2019-05-20T04:54:20.176Z,96.20
2019-05-20T04:56:48.778Z,96.40
2019-05-20T04:59:17.381Z,96.30
2019-05-20T05:01:46.027Z,96.60
2019-05-20T05:04:14.646Z,96.20
2019-05-20T05:06:43.354Z,96.20
2019-05-20T05:09:15.464Z,96.20
2019-05-20T05:11:43.855Z,96.10
2019-05-20T05:14:12.763Z,96.00
2019-05-20T05:16:41.394Z,96.00
2019-05-20T05:19:10.155Z,96.00
2019-05-20T05:21:38.985Z,96.10
2019-05-20T05:24:07.827Z,96.10
2019-05-20T05:26:36.772Z,96.00
2019-05-20T05:29:05.511Z,96.10
2019-05-20T05:31:34.450Z,96.20
2019-05-20T05:34:03.117Z,96.00
2019-05-20T05:36:31.771Z,96.00
2019-05-20T05:39:01.871Z,96.10
2019-05-20T05:41:30.475Z,96.10
2019-05-20T05:43:59.203Z,96.30
2019-05-20T05:46:27.803Z,95.90
2019-05-20T05:48:56.569Z,95.90
2019-05-20T05:51:25.390Z,95.80
2019-05-20T05:53:54.003Z,95.90
2019-05-20T05:56:22.943Z,95.80
2019-05-20T05:58:51.768Z,95.90
2019-05-20T06:01:20.563Z,96.10
2019-05-20T06:03:49.169Z,96.10
2019-05-20T06:06:19.496Z,96.20
2019-05-20T06:08:48.179Z,96.20
2019-05-20T06:11:16.904Z,96.00
2019-05-20T06:13:45.523Z,96.10
2019-05-20T06:16:14.219Z,96.00
2019-05-20T06:18:42.783Z,96.10
2019-05-20T06:21:11.437Z,96.10
2019-05-20T06:23:40.158Z,96.20
2019-05-20T06:26:28.216Z,96.20
2019-05-20T06:29:02.734Z,96.00
2019-05-20T06:31:29.572Z,96.20
2019-05-20T06:33:59.785Z,96.20
2019-05-20T06:36:28.780Z,96.20
2019-05-20T06:39:13.597Z,96.30
2019-05-20T06:41:43.825Z,96.10
2019-05-20T06:44:12.536Z,96.20
2019-05-20T06:46:41.186Z,96.20
2019-05-20T06:49:09.942Z,96.20
2019-05-20T06:51:38.593Z,96.30
2019-05-20T06:54:08.289Z,96.30
2019-05-20T06:56:37.260Z,96.30
2019-05-20T06:59:06.434Z,96.10
2019-05-20T07:01:35.319Z,96.00
2019-05-20T07:04:05.479Z,96.20
2019-05-20T07:06:53.607Z,96.30
2019-05-20T07:09:22.509Z,96.10
2019-05-20T07:11:53.109Z,95.90
2019-05-20T07:14:21.645Z,95.80
2019-05-20T07:16:50.389Z,95.90
2019-05-20T07:19:20.373Z,95.90
2019-05-20T07:21:49.818Z,95.90
2019-05-20T07:24:18.692Z,96.00
2019-05-20T07:26:47.360Z,96.10
2019-05-20T07:29:16.185Z,96.00
2019-05-20T07:31:44.809Z,95.90
2019-05-20T07:34:15.631Z,96.10
2019-05-20T07:36:44.308Z,96.00
2019-05-20T07:39:13.118Z,95.90
2019-05-20T07:41:43.299Z,96.00
2019-05-20T07:44:12.244Z,96.20
2019-05-20T07:46:41.051Z,96.10
2019-05-20T07:49:11.001Z,96.00
2019-05-20T07:51:41.992Z,96.00
2019-05-20T07:54:11.813Z,96.00
2019-05-20T07:56:43.535Z,96.00
2019-05-20T07:59:15.620Z,96.00
2019-05-20T08:01:44.333Z,95.90
2019-05-20T08:04:12.964Z,96.00
2019-05-20T08:06:41.830Z,96.00
2019-05-20T08:09:10.602Z,95.90
2019-05-20T08:11:39.482Z,95.90
2019-05-20T08:14:08.482Z,95.70
2019-05-20T08:16:37.394Z,95.70
2019-05-20T08:19:06.042Z,95.90
2019-05-20T08:21:35.518Z,95.70
2019-05-20T08:24:04.551Z,95.50
2019-05-20T08:26:33.461Z,95.50
2019-05-20T08:29:02.061Z,95.50
2019-05-20T08:31:30.881Z,95.40
2019-05-20T08:34:00.835Z,95.30
2019-05-20T08:36:29.397Z,95.40
2019-05-20T08:38:58.064Z,95.50
2019-05-20T08:41:26.854Z,95.40
2019-05-20T08:43:55.820Z,95.40
2019-05-20T08:46:25.630Z,95.40
2019-05-20T08:48:54.498Z,95.40
2019-05-20T08:51:23.955Z,95.20
2019-05-20T08:53:52.726Z,95.10
2019-05-20T08:56:21.734Z,95.10
2019-05-20T08:58:50.529Z,95.10
2019-05-20T09:01:19.140Z,95.20
2019-05-20T09:03:47.882Z,95.30
2019-05-20T09:06:20.641Z,95.40
2019-05-20T09:08:47.307Z,95.30
2019-05-20T09:11:15.992Z,95.40
2019-05-20T09:13:44.725Z,95.40
2019-05-20T09:16:13.398Z,95.50
2019-05-20T09:18:42.227Z,95.50
2019-05-20T09:21:12.665Z,95.40
2019-05-20T09:23:41.590Z,95.20
2019-05-20T09:26:12.409Z,95.60
2019-05-20T09:28:43.913Z,96.00
2019-05-20T09:31:12.659Z,95.90
2019-05-20T09:33:42.887Z,96.40
2019-05-20T09:36:11.834Z,96.60
2019-05-20T09:38:40.571Z,97.10
2019-05-20T09:41:09.552Z,97.10
2019-05-20T09:43:41.344Z,97.10
2019-05-20T09:46:10.097Z,96.80
2019-05-20T09:48:38.724Z,96.90
2019-05-20T09:51:07.351Z,96.90
2019-05-20T09:53:35.964Z,97.00
2019-05-20T09:56:04.717Z,97.20
2019-05-20T09:58:34.632Z,97.20
2019-05-20T10:01:04.051Z,96.90
2019-05-20T10:03:32.783Z,97.20
2019-05-20T10:06:01.672Z,96.60
2019-05-20T10:08:38.866Z,96.70
2019-05-20T10:11:01.479Z,96.40
2019-05-20T10:13:30.618Z,96.60
2019-05-20T10:15:59.424Z,96.70
2019-05-20T10:18:37.495Z,96.80
2019-05-20T10:21:05.883Z,96.70
2019-05-20T10:23:30.335Z,96.30
2019-05-20T10:25:59.196Z,95.70
2019-05-20T10:28:30.268Z,95.80
2019-05-20T10:30:59.113Z,95.80
2019-05-20T10:33:27.704Z,95.60
2019-05-20T10:35:56.399Z,96.00
2019-05-20T10:38:25.038Z,96.00
2019-05-20T10:40:54.700Z,95.80
2019-05-20T10:43:23.884Z,95.80
2019-05-20T10:45:52.613Z,95.50
2019-05-20T10:48:21.368Z,95.80
2019-05-20T10:50:50.121Z,95.90
2019-05-20T10:53:18.881Z,95.80
2019-05-20T10:55:47.494Z,95.90
2019-05-20T10:58:16.193Z,95.80
2019-05-20T11:01:01.145Z,95.90
2019-05-20T11:03:15.228Z,95.80
2019-05-20T11:05:44.451Z,95.70
2019-05-20T11:08:13.118Z,95.70
2019-05-20T11:10:41.786Z,95.90
2019-05-20T11:13:10.377Z,96.30
2019-05-20T11:15:39.069Z,96.40
2019-05-20T11:18:09.184Z,96.50
2019-05-20T11:20:38.247Z,96.10
2019-05-20T11:23:06.815Z,96.00
2019-05-20T11:25:35.553Z,96.20
2019-05-20T11:28:04.287Z,96.60
2019-05-20T11:30:32.898Z,96.30
2019-05-20T11:33:07.503Z,96.30
2019-05-20T11:35:36.217Z,96.10
2019-05-20T11:38:04.954Z,96.30
2019-05-20T11:40:34.202Z,96.10
2019-05-20T11:43:04.144Z,96.20
2019-05-20T11:45:32.969Z,96.30
2019-05-20T11:48:01.656Z,96.10
2019-05-20T11:50:30.905Z,96.10
2019-05-20T11:52:59.869Z,96.30
2019-05-20T11:55:28.440Z,96.50
2019-05-20T11:58:12.815Z,96.60
2019-05-20T12:00:28.050Z,96.50
2019-05-20T12:02:56.865Z,96.30
2019-05-20T12:05:26.267Z,96.40
2019-05-20T12:07:54.815Z,96.40
2019-05-20T12:10:24.343Z,96.40
2019-05-20T12:12:52.943Z,96.50
2019-05-20T12:15:21.627Z,96.90
2019-05-20T12:17:50.264Z,96.60
2019-05-20T12:20:19.501Z,96.50
2019-05-20T12:22:48.140Z,96.30
2019-05-20T12:25:17.056Z,96.50
2019-05-20T12:27:45.677Z,96.50
2019-05-20T12:30:15.726Z,96.40
2019-05-20T12:32:45.773Z,96.30
2019-05-20T12:35:14.723Z,96.40
2019-05-20T12:37:45.877Z,96.60
2019-05-20T12:40:15.238Z,96.90
2019-05-20T12:42:43.967Z,97.20
2019-05-20T12:45:13.273Z,97.30
2019-05-20T12:47:42.003Z,97.50
2019-05-20T12:50:11.543Z,97.90
2019-05-20T12:52:40.179Z,97.90
2019-05-20T12:55:10.344Z,98.30
2019-05-20T12:57:39.158Z,98.50
2019-05-20T13:00:11.318Z,98.50
2019-05-20T13:02:42.036Z,98.70
2019-05-20T13:05:11.626Z,98.70
2019-05-20T13:07:40.429Z,98.80
2019-05-20T13:10:27.004Z,98.70
2019-05-20T13:12:40.607Z,98.80
2019-05-20T13:15:11.254Z,98.80
2019-05-20T13:17:44.284Z,98.80
2019-05-20T13:20:10.988Z,98.80
2019-05-20T13:22:39.880Z,99.10
2019-05-20T13:25:09.595Z,98.80
2019-05-20T13:27:38.331Z,98.80
2019-05-20T13:30:10.275Z,98.90
2019-05-20T13:32:38.967Z,98.90
2019-05-20T13:35:08.635Z,98.90
2019-05-20T13:37:37.253Z,98.60
2019-05-20T13:40:10.410Z,98.70
2019-05-20T13:42:39.170Z,98.80
2019-05-20T13:45:08.610Z,99.10
2019-05-20T13:47:37.464Z,98.60
2019-05-20T13:50:09.939Z,98.50
2019-05-20T13:52:38.693Z,98.30
2019-05-20T13:55:07.797Z,98.40
2019-05-20T13:57:36.948Z,98.80
2019-05-20T14:00:13.151Z,98.70
2019-05-20T14:02:41.911Z,98.60
2019-05-20T14:05:11.275Z,98.60
2019-05-20T14:07:40.374Z,98.30
2019-05-20T14:10:10.075Z,98.30
2019-05-20T14:12:38.704Z,98.10
2019-05-20T14:15:08.440Z,98.00
2019-05-20T14:17:37.708Z,97.90
2019-05-20T14:20:08.180Z,97.50
2019-05-20T14:22:37.026Z,97.70
2019-05-20T14:25:28.296Z,97.20
2019-05-20T14:27:55.823Z,97.20
2019-05-20T14:30:24.437Z,97.10
2019-05-20T14:32:52.995Z,97.30
2019-05-20T14:35:21.672Z,97.20
2019-05-20T14:37:52.130Z,97.20
2019-05-20T14:40:21.155Z,97.50
2019-05-20T14:42:49.903Z,97.50
2019-05-20T14:45:18.602Z,97.60
2019-05-20T14:47:47.187Z,97.60
2019-05-20T14:50:16.966Z,97.70
2019-05-20T14:52:45.664Z,97.60
2019-05-20T14:55:14.478Z,97.40
2019-05-20T14:57:43.852Z,97.10
2019-05-20T15:00:13.450Z,97.10
2019-05-20T15:02:42.669Z,97.00
2019-05-20T15:05:14.189Z,96.80
2019-05-20T15:07:42.855Z,96.90
2019-05-20T15:10:12.449Z,96.80
2019-05-20T15:12:41.238Z,96.80
2019-05-20T15:15:10.337Z,96.90
2019-05-20T15:17:39.113Z,96.50
2019-05-20T15:20:08.699Z,96.40
2019-05-20T15:22:39.494Z,96.50
2019-05-20T15:25:10.630Z,96.70
2019-05-20T15:27:39.485Z,96.60
2019-05-20T15:30:12.347Z,96.40
2019-05-20T15:32:41.019Z,96.40
2019-05-20T15:35:11.186Z,96.50
2019-05-20T15:37:39.879Z,96.60
2019-05-20T15:40:08.991Z,96.80
2019-05-20T15:42:37.700Z,96.60
2019-05-20T15:45:10.228Z,96.70
2019-05-20T15:47:39.024Z,96.70
2019-05-20T15:50:10.170Z,96.70
2019-05-20T15:52:38.559Z,96.60
2019-05-20T15:55:07.951Z,96.90
2019-05-20T15:57:36.516Z,96.90
2019-05-20T16:00:08.518Z,97.00
2019-05-20T16:02:37.741Z,96.90
2019-05-20T16:05:09.301Z,96.80
2019-05-20T16:07:37.994Z,96.90
2019-05-20T16:10:07.220Z,96.90
2019-05-20T16:12:36.031Z,96.90
2019-05-20T16:15:08.130Z,97.00
2019-05-20T16:17:48.323Z,96.90
2019-05-20T16:20:16.175Z,97.00
2019-05-20T16:22:44.941Z,97.10
2019-05-20T16:25:14.824Z,97.10
2019-05-20T16:27:43.467Z,96.70
2019-05-20T16:30:14.027Z,96.60
2019-05-20T16:32:43.415Z,96.70
2019-05-20T16:35:12.676Z,96.70
2019-05-20T16:38:00.718Z,96.50
2019-05-20T16:40:29.609Z,96.60
2019-05-20T16:42:59.867Z,96.60
2019-05-20T16:45:28.659Z,96.60
2019-05-20T16:47:57.924Z,96.80
2019-05-20T16:50:26.841Z,97.00
2019-05-20T16:52:55.625Z,97.20
2019-05-20T16:55:24.262Z,97.60
2019-05-20T16:57:52.943Z,97.80
2019-05-20T17:00:31.514Z,98.10
2019-05-20T17:02:52.816Z,98.50
2019-05-20T17:05:21.410Z,98.70
2019-05-20T17:07:52.898Z,98.70
2019-05-20T17:10:21.903Z,98.80
2019-05-20T17:12:51.273Z,99.20
2019-05-20T17:15:20.078Z,99.40
2019-05-20T17:17:48.805Z,99.70
2019-05-20T17:20:18.270Z,99.80
2019-05-20T17:22:46.999Z,99.70
2019-05-20T17:25:15.806Z,99.70
2019-05-20T17:27:44.500Z,99.60
2019-05-20T17:30:14.213Z,99.80
2019-05-20T17:32:42.894Z,99.70
2019-05-20T17:35:12.087Z,99.70
2019-05-20T17:37:40.647Z,99.70
2019-05-20T17:40:11.202Z,99.80
2019-05-20T17:42:39.939Z,99.70
2019-05-20T17:45:09.788Z,99.60
2019-05-20T17:47:38.394Z,99.50
2019-05-20T17:50:09.363Z,99.60
2019-05-20T17:52:37.967Z,99.60
2019-05-20T17:55:07.883Z,99.90
2019-05-20T17:57:36.755Z,99.80
2019-05-20T18:00:12.170Z,99.70
2019-05-20T18:02:41.205Z,99.40
2019-05-20T18:05:10.137Z,99.60
2019-05-20T18:07:38.803Z,99.60
2019-05-20T18:10:08.718Z,99.70
2019-05-20T18:12:38.558Z,99.60
2019-05-20T18:15:08.241Z,99.60
2019-05-20T18:17:36.906Z,99.30
2019-05-20T18:20:07.226Z,99.20
2019-05-20T18:22:36.111Z,99.30
2019-05-20T18:25:06.656Z,99.10
2019-05-20T18:27:35.325Z,99.00
2019-05-20T18:30:05.851Z,98.80
2019-05-20T18:32:34.781Z,98.70
2019-05-20T18:35:04.310Z,98.70
2019-05-20T18:37:33.122Z,98.70
2019-05-20T18:40:13.306Z,98.60
2019-05-20T18:42:32.051Z,98.80
2019-05-20T18:45:08.330Z,98.50
2019-05-20T18:47:37.086Z,98.30
2019-05-20T18:50:07.927Z,98.50
2019-05-20T18:52:36.996Z,98.60
2019-05-20T18:55:07.451Z,98.60
2019-05-20T18:57:39.042Z,98.50
2019-05-20T19:00:10.044Z,98.50
2019-05-20T19:02:38.680Z,98.80
2019-05-20T19:05:08.036Z,98.50
2019-05-20T19:07:36.767Z,98.40
2019-05-20T19:10:06.705Z,98.50
2019-05-20T19:12:37.186Z,98.30
2019-05-20T19:15:07.471Z,98.50
2019-05-20T19:17:36.215Z,98.50
2019-05-20T19:20:06.611Z,98.50
2019-05-20T19:22:37.076Z,98.60
2019-05-20T19:25:07.003Z,98.60
2019-05-20T19:27:36.193Z,98.30
2019-05-20T19:30:05.927Z,98.40
2019-05-20T19:32:34.639Z,98.50
2019-05-20T19:35:05.212Z,98.40
2019-05-20T19:37:33.955Z,98.20
2019-05-20T19:40:02.874Z,98.20
2019-05-20T19:42:31.891Z,98.30
2019-05-20T19:45:00.453Z,98.30
2019-05-20T19:47:30.901Z,98.40
2019-05-20T19:49:59.750Z,98.60
2019-05-20T19:52:28.510Z,98.70
2019-05-20T19:54:57.137Z,98.60
2019-05-20T19:57:25.834Z,98.40
2019-05-20T19:59:54.434Z,98.40
2019-05-20T20:02:23.212Z,98.40
2019-05-20T20:04:52.019Z,98.40
2019-05-20T20:07:20.672Z,98.40
2019-05-20T20:09:49.423Z,98.40
2019-05-20T20:12:18.481Z,98.40
2019-05-20T20:14:47.167Z,98.50
2019-05-20T20:17:15.819Z,98.70
2019-05-20T20:19:44.408Z,98.80
2019-05-20T20:22:13.034Z,98.70
2019-05-20T20:24:41.771Z,98.70
2019-05-20T20:27:11.915Z,98.80
2019-05-20T20:29:40.491Z,98.90
2019-05-20T20:32:09.234Z,99.00
2019-05-20T20:34:37.855Z,99.00
2019-05-20T20:37:06.620Z,99.10
2019-05-20T20:39:35.267Z,99.50
2019-05-20T20:42:03.989Z,99.70
2019-05-20T20:44:32.567Z,99.80
2019-05-20T20:47:01.359Z,99.90
2019-05-20T20:49:30.167Z,99.90
2019-05-20T20:51:58.859Z,99.90
2019-05-20T20:54:27.694Z,99.90
2019-05-20T20:56:56.511Z,99.90
2019-05-20T20:59:25.272Z,99.90
2019-05-20T21:01:58.795Z,99.90
2019-05-20T21:04:24.890Z,99.90
2019-05-20T21:06:53.711Z,99.90
2019-05-20T21:09:22.271Z,99.90
2019-05-20T21:11:50.954Z,99.90
2019-05-20T21:14:19.520Z,99.90
2019-05-20T21:16:48.259Z,99.90
2019-05-20T21:19:16.867Z,99.90
2019-05-20T21:21:45.559Z,99.90
2019-05-20T21:24:14.324Z,99.90
2019-05-20T21:26:43.006Z,99.90
2019-05-20T21:29:11.925Z,99.90
2019-05-20T21:31:42.044Z,99.90
2019-05-20T21:34:10.816Z,99.90
2019-05-20T21:36:47.602Z,99.90
2019-05-20T21:39:10.048Z,99.90
2019-05-20T21:41:38.877Z,99.90
2019-05-20T21:44:07.868Z,99.90
2019-05-20T21:46:36.483Z,99.90
2019-05-20T21:49:05.229Z,99.90
2019-05-20T21:51:34.131Z,99.90
2019-05-20T21:54:02.946Z,99.90
2019-05-20T21:56:31.574Z,99.70
2019-05-20T21:59:00.682Z,99.70
2019-05-20T22:01:29.312Z,99.60
2019-05-20T22:03:57.837Z,99.60
2019-05-20T22:06:26.434Z,99.60
2019-05-20T22:08:55.235Z,99.60
2019-05-20T22:11:23.817Z,99.30
2019-05-20T22:13:52.441Z,99.40
2019-05-20T22:16:21.192Z,99.30
2019-05-20T22:18:49.813Z,99.40
2019-05-20T22:21:19.997Z,99.30
2019-05-20T22:23:50.320Z,99.30
2019-05-20T22:26:18.930Z,99.50
2019-05-20T22:28:49.668Z,99.30
2019-05-20T22:31:24.422Z,99.40
2019-05-20T22:33:55.619Z,99.00
2019-05-20T22:36:24.225Z,99.10
2019-05-20T22:38:52.901Z,98.90
2019-05-20T22:41:21.518Z,99.10
2019-05-20T22:43:50.209Z,99.20
2019-05-20T22:46:18.908Z,99.40
2019-05-20T22:48:47.466Z,99.40
2019-05-20T22:51:16.249Z,99.40
2019-05-20T22:53:44.978Z,99.50
2019-05-20T22:56:13.592Z,99.60
2019-05-20T22:58:42.194Z,99.40
2019-05-20T23:01:10.886Z,99.50
2019-05-20T23:03:39.746Z,99.70
2019-05-20T23:06:08.362Z,99.50
2019-05-20T23:08:37.133Z,99.30
2019-05-20T23:11:05.734Z,99.40
2019-05-20T23:13:34.316Z,99.30
2019-05-20T23:16:03.755Z,99.40
2019-05-20T23:18:32.387Z,99.50
2019-05-20T23:21:01.150Z,99.50
2019-05-20T23:23:29.850Z,99.60
2019-05-20T23:25:58.627Z,99.30
2019-05-20T23:28:27.210Z,99.30
2019-05-20T23:30:55.807Z,99.30
2019-05-20T23:33:24.358Z,99.40
2019-05-20T23:35:53.064Z,99.30
2019-05-20T23:38:21.755Z,99.10
2019-05-20T23:40:50.453Z,99.20
2019-05-20T23:43:19.081Z,99.00
2019-05-20T23:45:47.847Z,99.10
2019-05-20T23:48:16.553Z,99.20
2019-05-20T23:50:45.122Z,99.20
2019-05-20T23:53:13.747Z,99.20
2019-05-20T23:55:42.726Z,99.00
2019-05-20T23:58:11.528Z,99.00
